Mount Sylvan, Texas
Current Conditions -  °F | °C
As of 1:53 AM on Thursday 18 Dec 2014 (Local Time) from KTYR Reporting Station
Light Rain Light Rain  
Wind Chill: 40°   Ceiling: 400
Heat Index: 44°   Visibility: 7mi
Dew Point: 41°   Wind: 7mph
Humidity: 89%   Direction: 40°NE
Pressure: 30.15"   Gusts: NA
Location:  32.5326°N, 95.4249°W
Report Text: KTYR 180753Z 04006KT 7SM -RA OVC004 07/05 A3015 RMK AO2 RAB51 SLP210 P0000 T00670050
Loading
Personal Weather Stations






























Interactive Weather Map New forecast layout! Learn more

10-Day Weather Forecast

Advertisements
Track Severe Weather on mobile